Time;durP1;ratioP1;P1;durP2;ratioP2;P2;SDS_P1;SDS_P2;PMS_P1;PMS_P2;Temp;Humidity;BMP_temperature;BMP_pressure;BME280_temperature;BME280_humidity;BME280_pressure;Samples;Min_cycle;Max_cycle;Signal;HPM_P1;HPM_P2
2023/07/16 00:00:51;;;;;;;1.73;1.17;;;23.60;61.50;;;;;;5041862;28;20119;-79
2023/07/16 00:03:16;;;;;;;1.60;1.10;;;23.60;61.50;;;;;;5040006;28;20090;-78
2023/07/16 00:05:42;;;;;;;1.38;1.20;;;23.60;61.60;;;;;;5041061;28;20360;-78
2023/07/16 00:08:08;;;;;;;2.33;1.40;;;23.50;61.60;;;;;;5057337;28;20082;-78
2023/07/16 00:10:37;;;;;;;2.17;1.30;;;23.50;61.40;;;;;;5057540;28;20161;-78
2023/07/16 00:13:04;;;;;;;1.23;0.95;;;23.50;61.50;;;;;;5075672;28;20170;-80
2023/07/16 00:15:30;;;;;;;1.85;1.25;;;23.40;61.40;;;;;;5076164;28;20028;-79
2023/07/16 00:17:56;;;;;;;1.70;1.30;;;23.40;61.50;;;;;;5075074;28;20025;-78
2023/07/16 00:20:23;;;;;;;1.85;1.40;;;23.40;61.40;;;;;;5058187;28;20029;-78
2023/07/16 00:22:50;;;;;;;1.55;1.27;;;23.40;61.50;;;;;;5075242;28;20032;-78
2023/07/16 00:25:16;;;;;;;1.77;1.10;;;23.30;61.40;;;;;;5057064;28;20040;-78
2023/07/16 00:27:41;;;;;;;1.83;1.10;;;23.30;61.30;;;;;;5074794;28;20028;-78
2023/07/16 00:30:08;;;;;;;2.55;1.20;;;23.30;61.40;;;;;;5057124;28;20044;-79
2023/07/16 00:32:34;;;;;;;1.75;1.38;;;23.30;61.50;;;;;;5041308;28;20032;-79
2023/07/16 00:35:04;;;;;;;2.17;1.40;;;23.30;61.50;;;;;;5073440;28;20464;-78
2023/07/16 00:37:30;;;;;;;1.75;1.20;;;23.20;62.10;;;;;;5057171;28;20032;-78
2023/07/16 00:39:56;;;;;;;3.20;1.45;;;23.20;61.40;;;;;;5040448;28;20035;-79
2023/07/16 00:42:22;;;;;;;2.97;1.48;;;23.20;61.50;;;;;;5056941;28;20037;-78
2023/07/16 00:44:48;;;;;;;1.20;1.02;;;23.10;61.50;;;;;;5057065;28;20521;-79
2023/07/16 00:47:14;;;;;;;1.23;1.13;;;23.10;61.50;;;;;;5057219;28;20377;-79
2023/07/16 00:49:40;;;;;;;1.90;1.33;;;23.10;61.50;;;;;;5040172;28;20032;-78
2023/07/16 00:52:11;;;;;;;1.42;1.10;;;23.00;61.40;;;;;;5056662;28;20052;-78
2023/07/16 00:54:37;;;;;;;1.42;1.20;;;23.00;61.40;;;;;;5056570;28;20024;-79
2023/07/16 00:57:04;;;;;;;2.40;1.50;;;23.00;61.40;;;;;;5056760;28;20032;-78
2023/07/16 00:59:29;;;;;;;1.58;1.23;;;23.00;61.40;;;;;;5057082;28;20044;-79
2023/07/16 01:01:57;;;;;;;2.30;1.42;;;22.90;61.40;;;;;;5057064;28;20480;-78
2023/07/16 01:04:23;;;;;;;1.40;1.27;;;22.90;61.30;;;;;;5073883;28;20033;-78
2023/07/16 01:06:53;;;;;;;1.80;1.17;;;22.90;61.30;;;;;;5057469;28;20538;-79
2023/07/16 01:09:20;;;;;;;2.25;1.23;;;22.90;61.30;;;;;;5059196;28;20029;-80
2023/07/16 01:11:47;;;;;;;2.33;1.40;;;22.90;61.30;;;;;;5077182;28;20039;-78
2023/07/16 01:14:16;;;;;;;1.90;1.40;;;22.80;61.90;;;;;;5057365;28;20036;-78
2023/07/16 01:16:42;;;;;;;2.10;1.35;;;22.80;61.20;;;;;;5073234;28;20036;-78
2023/07/16 01:19:09;;;;;;;2.00;1.17;;;22.80;61.20;;;;;;5056009;28;20033;-78
2023/07/16 01:21:44;;;;;;;1.52;1.13;;;22.80;61.20;;;;;;5039754;28;20039;-78
2023/07/16 01:24:21;;;;;;;1.90;1.20;;;22.80;61.20;;;;;;5056323;28;20024;-78
2023/07/16 01:27:25;;;;;;;3.03;1.40;;;22.70;61.20;;;;;;5072780;28;20028;-79
2023/07/16 01:30:04;;;;;;;2.30;1.45;;;22.70;61.20;;;;;;5056074;28;20025;-78
2023/07/16 01:32:31;;;;;;;1.80;1.30;;;22.70;61.20;;;;;;5039371;28;20036;-80
2023/07/16 01:35:02;;;;;;;2.03;1.20;;;22.60;61.50;;;;;;5074050;28;20036;-78
2023/07/16 01:37:27;;;;;;;1.95;1.23;;;22.60;61.20;;;;;;5073627;28;20033;-78
2023/07/16 01:39:54;;;;;;;1.63;1.27;;;22.60;61.20;;;;;;5073849;28;20407;-78
2023/07/16 01:42:20;;;;;;;1.40;1.20;;;22.60;61.20;;;;;;5072321;28;20031;-79
2023/07/16 01:44:46;;;;;;;1.80;1.30;;;22.50;61.10;;;;;;5056518;28;20381;-78
2023/07/16 01:47:21;;;;;;;1.17;1.05;;;22.50;61.10;;;;;;5055796;28;20029;-79
2023/07/16 01:49:47;;;;;;;2.50;1.50;;;22.50;61.20;;;;;;5055868;28;20112;-79
2023/07/16 01:52:15;;;;;;;1.13;1.00;;;22.50;61.10;;;;;;5068298;28;20049;-79
2023/07/16 01:54:40;;;;;;;1.25;1.08;;;22.40;61.10;;;;;;5036569;28;20043;-78
2023/07/16 01:57:06;;;;;;;1.95;1.20;;;22.40;61.20;;;;;;5035639;28;20064;-80
2023/07/16 01:59:33;;;;;;;1.38;1.27;;;22.40;61.10;;;;;;5052087;28;20025;-80
2023/07/16 02:01:59;;;;;;;1.33;1.02;;;22.40;61.20;;;;;;5052432;28;20460;-78
2023/07/16 02:04:24;;;;;;;1.65;1.20;;;22.30;61.80;;;;;;5052523;28;20346;-78
2023/07/16 02:06:50;;;;;;;2.20;1.33;;;22.30;61.10;;;;;;5036357;28;20131;-77
2023/07/16 02:09:20;;;;;;;1.52;1.30;;;22.30;61.10;;;;;;5053066;28;20057;-78
2023/07/16 02:11:46;;;;;;;2.35;1.50;;;22.30;61.20;;;;;;5052056;28;20052;-78
2023/07/16 02:14:13;;;;;;;2.55;1.50;;;22.30;61.20;;;;;;5019118;28;20033;-80
2023/07/16 02:16:38;;;;;;;2.40;1.45;;;22.20;61.10;;;;;;5053623;28;20044;-79
2023/07/16 02:19:04;;;;;;;2.40;1.40;;;22.20;61.10;;;;;;5035470;28;20376;-79
2023/07/16 02:21:30;;;;;;;1.92;1.45;;;22.20;61.10;;;;;;5051792;28;20040;-78
2023/07/16 02:23:56;;;;;;;1.63;1.27;;;22.10;61.10;;;;;;5051342;28;20032;-79
2023/07/16 02:26:25;;;;;;;2.67;1.40;;;22.10;61.10;;;;;;5034956;28;20106;-77
2023/07/16 02:28:51;;;;;;;1.73;1.20;;;22.10;61.10;;;;;;5035387;28;20407;-79
2023/07/16 02:31:16;;;;;;;2.50;1.30;;;22.10;61.20;;;;;;5052040;28;20117;-78
2023/07/16 02:33:42;;;;;;;1.20;1.00;;;22.10;61.20;;;;;;5051818;28;20033;-79
2023/07/16 02:36:08;;;;;;;3.03;1.35;;;22.00;61.10;;;;;;5035180;28;20068;-78
2023/07/16 02:38:34;;;;;;;1.45;1.30;;;22.00;61.10;;;;;;5051980;28;20384;-78
2023/07/16 02:41:00;;;;;;;1.63;1.17;;;22.00;61.10;;;;;;5052369;28;20405;-80
2023/07/16 02:43:26;;;;;;;1.55;1.23;;;21.90;61.10;;;;;;5035824;28;20037;-78
2023/07/16 02:45:51;;;;;;;1.90;1.38;;;21.90;61.10;;;;;;5035154;28;20033;-78
2023/07/16 02:48:17;;;;;;;1.75;1.40;;;21.90;61.10;;;;;;5052614;28;20025;-78
2023/07/16 02:50:43;;;;;;;1.10;1.00;;;21.90;61.20;;;;;;5034866;28;20449;-80
2023/07/16 02:53:10;;;;;;;1.95;1.40;;;21.90;61.20;;;;;;5072600;28;20057;-79
2023/07/16 02:55:36;;;;;;;2.85;1.58;;;21.80;61.10;;;;;;5055213;28;20036;-79
2023/07/16 02:58:04;;;;;;;1.30;1.20;;;21.80;61.20;;;;;;5038840;28;20024;-78
2023/07/16 03:00:34;;;;;;;1.85;1.25;;;21.80;61.20;;;;;;5054848;28;20477;-78
2023/07/16 03:03:00;;;;;;;2.03;1.40;;;21.80;61.30;;;;;;5055640;28;20031;-79
2023/07/16 03:05:27;;;;;;;2.22;1.27;;;21.70;61.20;;;;;;5038272;28;20120;-78
2023/07/16 03:07:53;;;;;;;1.38;1.20;;;21.70;61.20;;;;;;5055169;28;20041;-77
2023/07/16 03:10:19;;;;;;;1.20;1.10;;;21.70;61.20;;;;;;5055000;28;20384;-78
2023/07/16 03:12:45;;;;;;;1.63;1.10;;;21.70;61.30;;;;;;5054968;28;20028;-78
2023/07/16 03:15:11;;;;;;;1.42;1.25;;;21.60;61.30;;;;;;5055511;28;20148;-79
2023/07/16 03:17:37;;;;;;;1.83;1.30;;;21.60;61.30;;;;;;5072413;28;20032;-78
2023/07/16 03:20:05;;;;;;;1.77;1.30;;;21.60;61.30;;;;;;5038670;28;20472;-77
2023/07/16 03:22:31;;;;;;;2.15;1.50;;;21.60;61.30;;;;;;5054820;28;20427;-80
2023/07/16 03:24:57;;;;;;;2.58;1.40;;;21.60;61.40;;;;;;5071850;28;20112;-80
2023/07/16 03:27:23;;;;;;;1.67;1.48;;;21.50;61.30;;;;;;5054818;28;20063;-79
2023/07/16 03:29:54;;;;;;;3.83;1.23;;;21.50;61.40;;;;;;5055142;28;20357;-78
2023/07/16 03:32:21;;;;;;;1.90;1.38;;;21.50;61.40;;;;;;5054720;28;20037;-79
2023/07/16 03:34:47;;;;;;;1.73;1.30;;;21.50;61.40;;;;;;5021305;28;20058;-78
2023/07/16 03:37:12;;;;;;;2.28;1.15;;;21.50;61.40;;;;;;5039122;28;20473;-78
2023/07/16 03:39:38;;;;;;;1.77;1.38;;;21.40;61.40;;;;;;5041511;28;20025;-78
2023/07/16 03:42:04;;;;;;;1.92;1.33;;;21.40;61.40;;;;;;5058282;28;20036;-79
2023/07/16 03:44:30;;;;;;;1.58;1.33;;;21.40;61.40;;;;;;5041688;28;20487;-78
2023/07/16 03:46:58;;;;;;;2.35;1.42;;;21.40;61.40;;;;;;5057496;28;20120;-77
2023/07/16 03:49:24;;;;;;;2.55;1.40;;;21.30;62.00;;;;;;5057752;28;20519;-78
2023/07/16 03:51:50;;;;;;;2.20;1.35;;;21.30;61.40;;;;;;5041165;28;20052;-78
2023/07/16 03:54:16;;;;;;;1.23;1.02;;;21.30;61.50;;;;;;5041457;28;20032;-78
2023/07/16 03:56:42;;;;;;;1.40;1.20;;;21.30;61.40;;;;;;5041528;28;20033;-79
2023/07/16 03:59:08;;;;;;;2.45;1.30;;;21.30;61.50;;;;;;5041443;28;20025;-78
2023/07/16 04:01:34;;;;;;;1.98;1.50;;;21.30;61.50;;;;;;5057774;28;20044;-76
2023/07/16 04:04:00;;;;;;;2.05;1.30;;;21.20;61.40;;;;;;5057558;28;20078;-78
2023/07/16 04:06:26;;;;;;;1.90;1.33;;;21.20;61.40;;;;;;5041654;28;20035;-78
2023/07/16 04:08:52;;;;;;;1.90;1.25;;;21.20;61.40;;;;;;5075891;28;20032;-76
2023/07/16 04:11:18;;;;;;;1.38;1.08;;;21.20;61.50;;;;;;5058160;28;20457;-77
2023/07/16 04:13:43;;;;;;;1.95;1.33;;;21.10;61.40;;;;;;5057385;28;20396;-77
2023/07/16 04:16:09;;;;;;;1.27;1.10;;;21.10;61.40;;;;;;5075097;28;20480;-77
2023/07/16 04:18:35;;;;;;;2.42;1.30;;;21.10;61.50;;;;;;5040710;28;20108;-79
2023/07/16 04:21:01;;;;;;;2.15;1.48;;;21.10;61.50;;;;;;5057863;28;20428;-77
2023/07/16 04:23:26;;;;;;;1.77;1.30;;;21.10;61.50;;;;;;5041477;28;20040;-76
2023/07/16 04:25:54;;;;;;;1.52;1.30;;;21.10;61.50;;;;;;5076338;28;20476;-77
2023/07/16 04:28:20;;;;;;;1.95;1.38;;;21.00;61.50;;;;;;5057476;28;20043;-79
2023/07/16 04:30:46;;;;;;;2.20;1.45;;;21.10;61.50;;;;;;5075126;28;20063;-77
2023/07/16 04:33:12;;;;;;;1.98;1.33;;;21.00;61.50;;;;;;5057477;28;20029;-77
2023/07/16 04:35:38;;;;;;;1.95;1.30;;;21.00;61.50;;;;;;5057009;28;20420;-77
2023/07/16 04:38:03;;;;;;;2.20;1.33;;;21.00;61.50;;;;;;5041174;28;20433;-77
2023/07/16 04:40:29;;;;;;;2.15;1.33;;;21.00;61.50;;;;;;5056845;28;20365;-80
2023/07/16 04:42:55;;;;;;;2.05;1.30;;;21.00;61.50;;;;;;5056819;28;20036;-78
2023/07/16 04:45:21;;;;;;;1.67;1.38;;;21.00;61.50;;;;;;5024136;28;20083;-78
2023/07/16 04:47:47;;;;;;;2.67;1.67;;;21.00;61.50;;;;;;5040014;28;20037;-77
2023/07/16 04:50:13;;;;;;;1.95;1.33;;;21.00;61.60;;;;;;5073667;28;20029;-77
2023/07/16 04:52:38;;;;;;;2.08;1.33;;;20.90;62.20;;;;;;5039605;28;20135;-78
2023/07/16 04:55:05;;;;;;;1.70;1.60;;;20.90;61.50;;;;;;5040056;28;20049;-77
2023/07/16 04:57:33;;;;;;;1.98;1.50;;;20.90;61.50;;;;;;5074639;28;20029;-78
2023/07/16 04:59:59;;;;;;;2.03;1.40;;;20.90;61.60;;;;;;5074504;28;20024;-77
2023/07/16 05:02:24;;;;;;;2.47;1.50;;;20.90;61.50;;;;;;5023410;28;20035;-77
2023/07/16 05:04:50;;;;;;;2.45;1.38;;;20.90;61.60;;;;;;5056301;28;20060;-78
2023/07/16 05:07:16;;;;;;;1.98;1.48;;;20.80;61.50;;;;;;5023100;28;20082;-78
2023/07/16 05:09:43;;;;;;;1.90;1.50;;;20.90;61.50;;;;;;5039481;28;20040;-78
2023/07/16 05:12:09;;;;;;;1.55;1.45;;;20.90;61.60;;;;;;5073308;28;20494;-76
2023/07/16 05:14:47;;;;;;;2.05;1.45;;;20.90;61.60;;;;;;5056082;28;20031;-77
2023/07/16 05:17:14;;;;;;;1.90;1.30;;;20.80;61.60;;;;;;5056193;28;20056;-76
2023/07/16 05:19:40;;;;;;;2.13;1.35;;;20.80;61.50;;;;;;5074470;28;20032;-78
2023/07/16 05:22:06;;;;;;;1.77;1.50;;;20.80;61.50;;;;;;5073887;28;20392;-77
2023/07/16 05:24:32;;;;;;;3.20;1.50;;;20.80;61.50;;;;;;5055996;28;20111;-77
2023/07/16 05:26:58;;;;;;;2.47;1.73;;;20.80;61.50;;;;;;5057137;28;20032;-77
2023/07/16 05:29:24;;;;;;;3.10;1.65;;;20.80;61.50;;;;;;5040234;28;20507;-77
2023/07/16 05:31:49;;;;;;;2.05;1.42;;;20.80;61.50;;;;;;5057153;28;20418;-80
2023/07/16 05:34:16;;;;;;;3.03;1.60;;;20.80;61.50;;;;;;5042140;28;20032;-77
2023/07/16 05:36:44;;;;;;;2.22;1.50;;;20.80;61.50;;;;;;5058093;28;20047;-78
2023/07/16 05:39:12;;;;;;;2.28;1.58;;;20.80;61.50;;;;;;5057268;28;20056;-78
2023/07/16 05:41:39;;;;;;;1.83;1.52;;;20.80;61.50;;;;;;5039723;28;20131;-80
2023/07/16 05:44:05;;;;;;;2.88;1.73;;;20.80;61.50;;;;;;5055352;28;20030;-77
2023/07/16 05:46:31;;;;;;;2.75;1.80;;;20.80;61.50;;;;;;5055585;28;20107;-77
2023/07/16 05:48:57;;;;;;;2.65;1.58;;;20.70;61.40;;;;;;5039094;28;20074;-77
2023/07/16 05:51:23;;;;;;;3.25;1.80;;;20.70;61.40;;;;;;5055845;28;20040;-77
2023/07/16 05:53:49;;;;;;;3.90;1.60;;;20.70;61.40;;;;;;5039546;28;20453;-78
2023/07/16 05:56:15;;;;;;;3.03;1.73;;;20.70;61.40;;;;;;5038941;28;20029;-78
2023/07/16 05:58:41;;;;;;;3.78;1.90;;;20.70;61.40;;;;;;5055979;28;20056;-77
2023/07/16 06:01:09;;;;;;;2.58;1.58;;;20.70;61.40;;;;;;5074076;28;20078;-77
2023/07/16 06:03:34;;;;;;;2.15;1.70;;;20.70;61.40;;;;;;5039318;28;20058;-80
2023/07/16 06:06:00;;;;;;;3.15;1.90;;;20.70;61.40;;;;;;5023016;28;20489;-79
2023/07/16 06:08:26;;;;;;;2.38;1.70;;;20.70;61.30;;;;;;5055875;28;20028;-78
2023/07/16 06:10:52;;;;;;;3.05;1.70;;;20.70;61.30;;;;;;5022588;28;20127;-78
2023/07/16 06:13:18;;;;;;;2.58;1.70;;;20.70;61.30;;;;;;5038868;28;20043;-79
2023/07/16 06:15:44;;;;;;;2.40;1.80;;;20.70;61.30;;;;;;5055255;28;20033;-80
2023/07/16 06:18:10;;;;;;;2.42;1.85;;;20.70;61.30;;;;;;5038642;28;20029;-79
2023/07/16 06:20:35;;;;;;;3.00;1.90;;;20.70;61.30;;;;;;5073412;28;20036;-78
2023/07/16 06:23:01;;;;;;;2.97;1.70;;;20.70;61.30;;;;;;5055051;28;20512;-78
2023/07/16 06:25:27;;;;;;;2.22;1.65;;;20.70;61.30;;;;;;5022561;28;20046;-77
2023/07/16 06:27:53;;;;;;;2.10;1.63;;;20.70;61.20;;;;;;5038516;28;20036;-79
2023/07/16 06:30:19;;;;;;;3.05;1.90;;;20.70;61.90;;;;;;5038613;28;20126;-77
2023/07/16 06:32:45;;;;;;;4.40;2.33;;;20.70;61.20;;;;;;5038271;28;20050;-79
2023/07/16 06:35:10;;;;;;;2.95;1.73;;;20.70;61.20;;;;;;5038577;28;20381;-78
2023/07/16 06:37:36;;;;;;;3.72;1.77;;;20.70;61.20;;;;;;5054842;28;20480;-79
2023/07/16 06:40:03;;;;;;;3.50;2.00;;;20.70;61.20;;;;;;5055025;28;20106;-78
2023/07/16 06:42:29;;;;;;;2.35;1.77;;;20.70;61.20;;;;;;5073215;28;20037;-79
2023/07/16 06:44:55;;;;;;;2.95;1.80;;;20.70;61.20;;;;;;5038905;28;20078;-78
2023/07/16 06:47:21;;;;;;;3.05;1.77;;;20.70;61.20;;;;;;5039156;28;20039;-79
2023/07/16 06:49:46;;;;;;;3.42;2.05;;;20.70;61.10;;;;;;5055157;28;20032;-79
2023/07/16 06:52:22;;;;;;;3.15;1.95;;;20.70;61.20;;;;;;5037872;28;20170;-79
2023/07/16 06:54:48;;;;;;;3.28;2.00;;;20.70;61.20;;;;;;5039828;28;20033;-78
2023/07/16 06:57:14;;;;;;;3.08;2.17;;;20.70;61.10;;;;;;5038630;28;20097;-79
2023/07/16 06:59:40;;;;;;;2.97;2.08;;;20.70;61.10;;;;;;5055391;28;20041;-79
2023/07/16 07:02:06;;;;;;;3.00;1.90;;;20.70;61.10;;;;;;5055174;28;20040;-79
2023/07/16 07:04:32;;;;;;;3.53;1.95;;;20.70;61.10;;;;;;5037879;28;20037;-79
2023/07/16 07:06:58;;;;;;;2.67;1.95;;;20.70;61.10;;;;;;5055751;28;20384;-81
2023/07/16 07:09:24;;;;;;;3.10;1.92;;;20.70;61.10;;;;;;5054916;28;20032;-79
2023/07/16 07:11:49;;;;;;;3.90;2.10;;;20.70;61.10;;;;;;5055923;28;20068;-79
2023/07/16 07:14:15;;;;;;;4.68;2.20;;;20.70;61.10;;;;;;5058963;28;20066;-79
2023/07/16 07:16:41;;;;;;;3.90;2.35;;;20.70;61.10;;;;;;5076067;28;20373;-79
2023/07/16 07:19:08;;;;;;;2.92;1.95;;;20.70;61.10;;;;;;5076313;28;20024;-80
2023/07/16 07:21:33;;;;;;;3.25;2.05;;;20.80;61.10;;;;;;5076846;28;20040;-79
2023/07/16 07:23:59;;;;;;;2.83;1.98;;;20.80;61.10;;;;;;5058557;28;20139;-80
2023/07/16 07:26:25;;;;;;;2.70;1.90;;;20.80;61.00;;;;;;5075458;28;20037;-79
2023/07/16 07:28:51;;;;;;;3.53;2.03;;;20.80;61.00;;;;;;5058531;28;20033;-79
2023/07/16 07:31:17;;;;;;;2.88;2.03;;;20.80;61.00;;;;;;5041928;28;20036;-79
2023/07/16 07:33:43;;;;;;;3.70;2.10;;;20.80;60.90;;;;;;5042201;28;20037;-79
2023/07/16 07:36:09;;;;;;;3.72;2.10;;;20.80;60.90;;;;;;5025272;28;20032;-79
2023/07/16 07:38:35;;;;;;;3.17;2.03;;;20.90;60.90;;;;;;5076764;28;20067;-78
2023/07/16 07:41:01;;;;;;;3.50;2.30;;;20.90;60.80;;;;;;5058606;28;20052;-79
2023/07/16 07:43:27;;;;;;;3.03;2.05;;;20.90;60.80;;;;;;5058829;28;20032;-79
2023/07/16 07:45:53;;;;;;;3.70;2.30;;;20.90;60.70;;;;;;5058193;28;20036;-79
2023/07/16 07:48:18;;;;;;;3.53;2.30;;;21.00;60.70;;;;;;5041482;28;20032;-79
2023/07/16 07:50:46;;;;;;;2.75;2.05;;;21.00;60.70;;;;;;5024964;28;20076;-79
2023/07/16 07:53:14;;;;;;;3.72;2.28;;;21.00;60.60;;;;;;5076344;28;20055;-78
2023/07/16 07:55:40;;;;;;;3.15;2.10;;;21.10;60.50;;;;;;5041997;28;20082;-78
2023/07/16 07:58:07;;;;;;;3.13;2.10;;;21.10;60.40;;;;;;5058009;28;20029;-77
2023/07/16 08:00:33;;;;;;;3.97;2.15;;;21.20;60.40;;;;;;5041302;28;20039;-78
2023/07/16 08:02:58;;;;;;;4.47;2.30;;;21.20;60.30;;;;;;5057776;28;20111;-78
2023/07/16 08:05:24;;;;;;;3.45;2.20;;;21.30;60.20;;;;;;5057609;28;20028;-83
2023/07/16 08:07:51;;;;;;;4.30;2.30;;;21.40;60.20;;;;;;5076117;28;20031;-76
2023/07/16 08:10:17;;;;;;;2.67;1.98;;;21.40;60.10;;;;;;5041362;28;20036;-79
2023/07/16 08:12:43;;;;;;;3.65;2.28;;;21.50;60.00;;;;;;5057645;28;20396;-78
2023/07/16 08:15:13;;;;;;;3.03;1.98;;;21.50;59.90;;;;;;5057485;28;20503;-76
2023/07/16 08:17:41;;;;;;;3.78;2.17;;;21.60;59.80;;;;;;5058436;28;20033;-80
2023/07/16 08:20:07;;;;;;;4.55;2.45;;;21.60;59.70;;;;;;5075325;28;20055;-77
2023/07/16 08:22:33;;;;;;;4.30;2.33;;;21.70;59.50;;;;;;5057895;28;20036;-78
2023/07/16 08:24:59;;;;;;;4.78;2.40;;;21.80;59.50;;;;;;5074267;28;20389;-77
2023/07/16 08:27:25;;;;;;;5.53;2.58;;;21.80;59.40;;;;;;5041007;28;20540;-78
2023/07/16 08:29:50;;;;;;;5.43;2.92;;;21.90;59.30;;;;;;5040792;28;20029;-78
2023/07/16 08:32:16;;;;;;;4.88;2.95;;;22.00;59.40;;;;;;5040590;28;20440;-79
2023/07/16 08:34:42;;;;;;;5.20;3.00;;;22.00;59.20;;;;;;5074057;28;20435;-79
2023/07/16 08:37:08;;;;;;;4.78;2.40;;;22.10;59.10;;;;;;5057185;28;20037;-79
2023/07/16 08:39:34;;;;;;;6.50;3.10;;;22.10;59.00;;;;;;5057182;28;20040;-79
2023/07/16 08:42:00;;;;;;;5.47;2.70;;;22.20;58.90;;;;;;5074916;28;20107;-77
2023/07/16 08:44:27;;;;;;;4.38;2.78;;;22.20;58.70;;;;;;5056839;28;20028;-78
2023/07/16 08:46:53;;;;;;;4.38;2.80;;;22.30;58.70;;;;;;5075075;28;20024;-79
2023/07/16 08:49:21;;;;;;;4.93;2.85;;;22.40;58.70;;;;;;5057032;28;20021;-79
2023/07/16 08:51:48;;;;;;;4.35;2.72;;;22.40;58.70;;;;;;5056704;28;20077;-77
2023/07/16 08:54:19;;;;;;;4.95;2.80;;;22.50;58.80;;;;;;5057360;28;20024;-79
2023/07/16 08:56:47;;;;;;;3.90;2.72;;;22.50;58.70;;;;;;5041077;28;20032;-77
2023/07/16 08:59:14;;;;;;;4.57;3.10;;;22.60;58.60;;;;;;5057618;28;20033;-78
2023/07/16 09:01:40;;;;;;;4.88;2.70;;;22.70;58.50;;;;;;5040550;28;20059;-78
2023/07/16 09:04:06;;;;;;;3.85;2.53;;;22.70;58.40;;;;;;5057293;28;20033;-78
2023/07/16 09:06:32;;;;;;;4.57;2.95;;;22.80;58.20;;;;;;5074468;28;20120;-78
2023/07/16 09:08:58;;;;;;;4.85;2.78;;;22.90;58.00;;;;;;5056972;28;20119;-78
2023/07/16 09:11:24;;;;;;;6.78;3.33;;;22.90;57.90;;;;;;5039916;28;20036;-79
2023/07/16 09:13:50;;;;;;;5.30;3.20;;;23.00;57.70;;;;;;5056572;28;20036;-77
2023/07/16 09:16:18;;;;;;;3.72;2.47;;;23.00;57.60;;;;;;5056695;28;20389;-79
2023/07/16 09:18:45;;;;;;;4.25;2.80;;;23.10;57.50;;;;;;5072889;28;20090;-79
2023/07/16 09:21:11;;;;;;;4.70;2.72;;;23.10;57.40;;;;;;5056605;28;20502;-76
2023/07/16 09:23:37;;;;;;;4.40;2.90;;;23.20;57.40;;;;;;5039822;28;20039;-80
2023/07/16 09:26:03;;;;;;;3.95;2.67;;;23.20;57.30;;;;;;5056768;28;20032;-80
2023/07/16 09:28:33;;;;;;;4.18;2.38;;;23.30;57.30;;;;;;5039681;28;20094;-81
2023/07/16 09:31:07;;;;;;;4.53;2.92;;;23.30;57.10;;;;;;5055787;28;20067;-79
2023/07/16 09:33:33;;;;;;;3.37;2.47;;;23.40;57.10;;;;;;5073609;28;20036;-78
2023/07/16 09:36:00;;;;;;;3.70;2.42;;;23.40;56.90;;;;;;5055945;28;20028;-79
2023/07/16 09:38:27;;;;;;;3.63;2.58;;;23.50;56.90;;;;;;5055592;28;20029;-79
2023/07/16 09:40:55;;;;;;;4.53;2.88;;;23.50;56.80;;;;;;5039540;28;20044;-79
2023/07/16 09:43:21;;;;;;;4.18;2.88;;;23.50;56.60;;;;;;5055649;28;20354;-79
2023/07/16 09:45:47;;;;;;;3.28;2.03;;;23.50;56.40;;;;;;5040000;28;20039;-79
2023/07/16 09:48:14;;;;;;;4.30;2.63;;;23.60;56.40;;;;;;5039251;28;20171;-80
2023/07/16 09:50:53;;;;;;;4.07;2.70;;;23.60;56.30;;;;;;5039202;28;20032;-78
2023/07/16 09:53:21;;;;;;;4.35;2.42;;;23.60;56.30;;;;;;5073950;28;20051;-78
2023/07/16 09:55:48;;;;;;;4.38;2.70;;;23.70;56.20;;;;;;5056110;28;20403;-78
2023/07/16 09:58:20;;;;;;;3.95;2.42;;;23.60;56.00;;;;;;5058210;28;20123;-79
2023/07/16 10:00:47;;;;;;;3.78;2.40;;;23.70;56.00;;;;;;5064628;28;20082;-78
2023/07/16 10:03:15;;;;;;;4.70;2.83;;;23.70;56.00;;;;;;5063342;28;20032;-80
2023/07/16 10:05:42;;;;;;;3.85;2.42;;;23.70;56.00;;;;;;5075773;28;20032;-79
2023/07/16 10:08:17;;;;;;;5.32;2.67;;;23.70;56.00;;;;;;5040341;28;20078;-79
2023/07/16 10:10:54;;;;;;;3.65;2.25;;;23.70;56.10;;;;;;5074115;28;20029;-79
2023/07/16 10:13:23;;;;;;;4.88;2.33;;;23.80;56.10;;;;;;5055234;28;20028;-81
2023/07/16 10:15:57;;;;;;;4.55;2.70;;;23.80;56.00;;;;;;5055287;28;20103;-80
2023/07/16 10:18:24;;;;;;;;;;;23.80;56.10;;;;;;5073553;28;20115;-78
2023/07/16 10:20:52;;;;;;;4.13;2.30;;;23.80;56.10;;;;;;5038618;28;19913;-79
2023/07/16 10:23:18;;;;;;;4.30;2.33;;;23.90;56.00;;;;;;5054503;28;20086;-78
2023/07/16 10:26:01;;;;;;;3.88;2.35;;;23.90;56.00;;;;;;5054246;28;20170;-80
2023/07/16 10:28:27;;;;;;;5.43;2.47;;;23.90;56.00;;;;;;5071494;28;20028;-79
2023/07/16 10:30:53;;;;;;;2.90;2.00;;;23.90;55.90;;;;;;5037300;28;20387;-77
2023/07/16 10:33:19;;;;;;;4.38;2.60;;;23.90;55.70;;;;;;5037458;28;20413;-77
2023/07/16 10:35:46;;;;;;;5.43;2.58;;;24.00;55.70;;;;;;5037182;28;20108;-81
2023/07/16 10:38:12;;;;;;;4.80;2.85;;;24.00;55.70;;;;;;5053982;28;20075;-82
2023/07/16 10:40:42;;;;;;;4.95;2.65;;;24.00;55.60;;;;;;5054022;28;20031;-81
2023/07/16 10:43:08;;;;;;;4.85;2.45;;;24.00;55.50;;;;;;5037105;28;20055;-80
2023/07/16 10:45:34;;;;;;;3.88;2.40;;;24.00;55.40;;;;;;5053519;28;20064;-80
2023/07/16 10:48:00;;;;;;;4.55;2.78;;;24.00;55.20;;;;;;5039891;28;20031;-79
2023/07/16 10:50:26;;;;;;;3.78;2.45;;;24.10;55.10;;;;;;5076054;28;20033;-82
2023/07/16 10:52:53;;;;;;;3.75;2.45;;;24.00;55.10;;;;;;5076417;28;20044;-84
2023/07/16 10:55:19;;;;;;;4.50;2.65;;;24.10;55.10;;;;;;5057864;28;20026;-78
2023/07/16 10:57:48;;;;;;;4.57;2.67;;;24.10;55.00;;;;;;5041336;28;20112;-78
2023/07/16 11:00:16;;;;;;;3.35;2.00;;;24.10;55.10;;;;;;5057955;28;20467;-83
2023/07/16 11:02:43;;;;;;;5.05;2.40;;;24.10;55.20;;;;;;5075451;28;20048;-79
2023/07/16 11:05:14;;;;;;;4.20;2.60;;;24.20;55.10;;;;;;5075218;28;20039;-82
2023/07/16 11:07:47;;;;;;;3.72;2.30;;;24.20;55.00;;;;;;5040971;28;20067;-82
2023/07/16 11:10:15;;;;;;;4.07;2.22;;;24.20;55.00;;;;;;5058114;28;20056;-81
2023/07/16 11:12:41;;;;;;;3.60;2.15;;;24.20;55.10;;;;;;5057122;28;20081;-83
2023/07/16 11:15:08;;;;;;;4.88;2.63;;;24.20;54.90;;;;;;5075209;28;20032;-80
2023/07/16 11:17:34;;;;;;;4.28;2.58;;;24.30;54.90;;;;;;5040756;28;20131;-79
2023/07/16 11:20:02;;;;;;;3.33;2.20;;;24.20;54.80;;;;;;5040261;28;20064;-82
2023/07/16 11:22:28;;;;;;;3.60;2.22;;;24.30;54.90;;;;;;5074687;28;20033;-79
2023/07/16 11:24:54;;;;;;;4.57;2.40;;;24.30;54.90;;;;;;5073671;28;20032;-80
2023/07/16 11:27:27;;;;;;;4.18;2.35;;;24.30;54.80;;;;;;5040647;28;20037;-82
2023/07/16 11:29:58;;;;;;;5.60;2.75;;;24.30;54.90;;;;;;5074977;28;20040;-83
2023/07/16 11:32:30;;;;;;;5.43;2.55;;;24.30;54.90;;;;;;5074643;28;20115;-83
2023/07/16 11:34:58;;;;;;;3.33;2.22;;;24.30;54.90;;;;;;5073562;28;20487;-80
2023/07/16 11:37:31;;;;;;;3.25;2.13;;;24.30;54.90;;;;;;5056573;28;20127;-79
2023/07/16 11:40:03;;;;;;;4.43;2.27;;;24.30;54.90;;;;;;5056648;28;20051;-82
2023/07/16 11:42:30;;;;;;;5.65;2.45;;;24.40;54.90;;;;;;5074349;28;20123;-81
2023/07/16 11:44:57;;;;;;;3.53;2.25;;;24.40;54.90;;;;;;5056528;28;20024;-80
2023/07/16 11:47:23;;;;;;;3.20;2.20;;;24.40;54.80;;;;;;5056520;28;20031;-80
2023/07/16 11:49:49;;;;;;;4.32;2.45;;;24.40;54.80;;;;;;5056828;28;20119;-78
2023/07/16 11:52:28;;;;;;;4.82;2.25;;;24.40;54.80;;;;;;5075062;28;20051;-80
2023/07/16 11:54:56;;;;;;;3.65;2.35;;;24.40;54.70;;;;;;5057758;28;20082;-78
2023/07/16 11:57:23;;;;;;;3.65;2.25;;;24.40;54.60;;;;;;5040223;28;20469;-78
2023/07/16 11:59:49;;;;;;;3.92;2.33;;;24.40;54.60;;;;;;5040177;28;20037;-78
2023/07/16 12:02:16;;;;;;;3.95;2.40;;;24.40;54.50;;;;;;5057545;28;20085;-78
2023/07/16 12:04:42;;;;;;;4.25;2.53;;;24.40;54.50;;;;;;5040199;28;20036;-78
2023/07/16 12:07:08;;;;;;;3.38;2.15;;;24.50;54.60;;;;;;5040159;28;20024;-79
2023/07/16 12:09:34;;;;;;;3.67;2.13;;;24.50;54.60;;;;;;5057037;28;20048;-80
2023/07/16 12:12:00;;;;;;;3.40;2.38;;;24.50;54.60;;;;;;5056823;28;20036;-78
2023/07/16 12:14:27;;;;;;;3.55;2.05;;;24.60;54.70;;;;;;5023713;28;20055;-79
2023/07/16 12:16:52;;;;;;;3.22;2.22;;;24.60;54.70;;;;;;5075364;28;20047;-79
2023/07/16 12:19:18;;;;;;;3.50;2.03;;;24.60;54.70;;;;;;5074542;28;20050;-79
2023/07/16 12:21:44;;;;;;;4.03;2.00;;;24.60;54.80;;;;;;5056645;28;20423;-80
2023/07/16 12:24:11;;;;;;;2.75;1.92;;;24.60;54.80;;;;;;5057852;28;20051;-79
2023/07/16 12:26:37;;;;;;;3.58;1.98;;;24.70;54.90;;;;;;5056505;28;20032;-78
2023/07/16 12:29:03;;;;;;;3.15;2.10;;;24.60;54.80;;;;;;5056392;28;20097;-78
2023/07/16 12:31:33;;;;;;;2.70;1.77;;;24.70;55.00;;;;;;5056549;28;20029;-77
2023/07/16 12:34:01;;;;;;;2.97;2.00;;;24.70;55.00;;;;;;5073679;28;20035;-77
2023/07/16 12:36:27;;;;;;;3.58;1.95;;;24.70;55.00;;;;;;5073162;28;20059;-78
2023/07/16 12:38:54;;;;;;;3.00;1.92;;;24.80;55.00;;;;;;5040190;28;20028;-78
2023/07/16 12:41:20;;;;;;;2.95;1.88;;;24.80;55.10;;;;;;5074524;28;20028;-80
2023/07/16 12:43:47;;;;;;;2.80;1.90;;;24.80;55.10;;;;;;5039981;28;20410;-79
2023/07/16 12:46:12;;;;;;;2.95;1.85;;;24.80;55.10;;;;;;5040170;28;20476;-79